Time;durP1;ratioP1;P1;durP2;ratioP2;P2;SDS_P1;SDS_P2;PMS_P1;PMS_P2;Temp;Humidity;BMP_temperature;BMP_pressure;BME280_temperature;BME280_humidity;BME280_pressure;Samples;Min_cycle;Max_cycle;Signal;HPM_P1;HPM_P2
2023/08/27 00:00:33;;;;;;;7.25;4.82;;;;;;;-144.05;81.53;56891.31;5037783;28;20108;-81
2023/08/27 00:02:59;;;;;;;6.82;5.10;;;;;;;-144.05;81.53;56889.19;5037361;28;20028;-82
2023/08/27 00:05:25;;;;;;;7.43;4.80;;;;;;;-144.05;81.04;56891.31;5036466;28;20033;-79
2023/08/27 00:07:52;;;;;;;9.82;4.65;;;;;;;-144.05;80.61;56895.56;5035586;28;20484;-78
2023/08/27 00:10:18;;;;;;;6.47;4.20;;;;;;;-144.05;80.27;56921.06;5036446;28;20036;-80
2023/08/27 00:12:44;;;;;;;9.60;4.53;;;10.50;99.90;;;-144.05;80.06;56897.69;5035923;28;20025;-79
2023/08/27 00:15:10;;;;;;;7.15;3.63;;;;;;;-144.05;80.09;56912.56;5036840;28;20471;-80
2023/08/27 00:17:36;;;;;;;7.80;4.20;;;10.50;99.90;;;-144.05;79.95;56891.31;5036658;28;20110;-80
2023/08/27 00:20:06;;;;;;;6.70;4.53;;;;;;;-144.05;79.96;56918.94;5036174;28;20038;-81
2023/08/27 00:22:33;;;;;;;5.47;4.18;;;;;;;-144.05;79.87;56901.94;5035796;28;20546;-80
2023/08/27 00:24:59;;;;;;;7.65;4.38;;;;;;;-144.05;79.99;56908.31;5034482;28;20029;-82
2023/08/27 00:27:25;;;;;;;5.65;4.15;;;;;;;-144.05;80.15;56904.06;5036431;28;20033;-81
2023/08/27 00:29:52;;;;;;;6.90;4.32;;;;;;;-144.05;80.14;56942.28;5036117;28;20696;-81
2023/08/27 00:32:18;;;;;;;6.53;4.35;;;;;;;-144.05;80.40;56935.91;5035361;28;20087;-81
2023/08/27 00:34:44;;;;;;;7.30;4.18;;;;;;;-144.05;80.78;56929.53;5036239;28;20033;-79
2023/08/27 00:37:10;;;;;;;5.10;3.42;;;;;;;-144.05;80.84;56918.94;5034871;28;20095;-80
2023/08/27 00:39:37;;;;;;;8.32;4.35;;;;;;;-144.05;80.87;56921.06;5035491;28;20106;-79
2023/08/27 00:42:05;;;;;;;4.82;3.75;;;14.50;99.90;;;-144.05;81.05;56929.53;5036335;28;20022;-80
2023/08/27 00:44:31;;;;;;;11.23;4.00;;;;;;;-144.05;81.54;56933.78;5035886;28;20022;-79
2023/08/27 00:46:59;;;;;;;6.50;3.65;;;14.40;99.90;;;-144.05;81.55;56921.06;5034465;28;20063;-79
2023/08/27 00:49:25;;;;;;;5.95;3.95;;;;;;;-144.05;81.52;56916.81;5033831;28;20469;-81
2023/08/27 00:51:52;;;;;;;5.60;4.22;;;;;;;-144.05;81.42;56914.69;5032836;28;20040;-80
2023/08/27 00:54:19;;;;;;;5.68;4.00;;;;;;;-144.05;81.49;56933.78;5034328;28;20029;-80
2023/08/27 00:56:47;;;;;;;6.88;3.65;;;10.00;99.90;;;-144.05;81.13;56912.56;5032944;28;20087;-81
2023/08/27 00:59:14;;;;;;;7.53;3.53;;;10.30;99.90;;;-144.05;80.97;56912.56;5034298;28;20053;-79
2023/08/27 01:01:40;;;;;;;5.10;2.92;;;;;;;-144.05;80.97;56887.06;5032955;28;20108;-80
2023/08/27 01:04:06;;;;;;;9.27;3.65;;;10.10;99.90;;;-144.05;80.91;56916.81;5033806;28;20423;-80
2023/08/27 01:06:33;;;;;;;6.88;4.38;;;;;;;-144.05;81.13;56912.56;5034156;28;20033;-78
2023/08/27 01:09:37;;;;;;;6.10;3.22;;;14.40;99.90;;;-144.05;81.11;56923.19;5033281;28;20034;-80
2023/08/27 01:13:00;;;;;;;6.07;3.85;;;15.00;99.90;;;-144.05;81.20;56912.56;5023892;28;20041;-80
2023/08/27 01:15:28;;;;;;;6.88;3.67;;;;;;;-144.05;80.96;56938.03;5027757;28;20134;-79
2023/08/27 01:18:03;;;;;;;7.38;3.85;;;10.20;99.90;;;-144.05;80.87;56929.53;5033364;28;20099;-78
2023/08/27 01:20:31;;;;;;;7.63;3.90;;;10.30;99.90;;;-144.05;81.00;56931.66;5033827;28;20632;-80
2023/08/27 01:22:57;;;;;;;5.28;3.33;;;;;;;-144.05;80.96;56933.78;5048619;28;20096;-80
2023/08/27 01:25:50;;;;;;;8.13;3.42;;;14.20;99.90;;;-144.05;81.56;56931.66;5033344;28;20068;-81
2023/08/27 01:28:46;;;;;;;6.25;3.47;;;14.10;99.90;;;-144.05;81.72;56933.78;5032481;28;20028;-82
2023/08/27 01:31:21;;;;;;;6.55;3.75;;;14.00;99.90;;;-144.05;82.09;56933.78;5027891;28;20034;-78
2023/08/27 01:33:50;;;;;;;5.05;3.40;;;;;;;-144.05;82.46;56906.19;5019137;28;20026;-80
2023/08/27 01:36:19;;;;;;;8.25;4.07;;;14.30;99.90;;;-144.05;83.10;56938.03;5017081;28;20041;-80
2023/08/27 01:38:45;;;;;;;7.60;3.72;;;;;;;-144.05;82.59;56933.78;5015674;28;20433;-79
2023/08/27 01:41:11;;;;;;;6.05;3.50;;;;;;;-144.05;82.10;56944.41;5013238;28;20496;-80
2023/08/27 01:43:38;;;;;;;6.60;4.40;;;;;;;-144.05;81.73;56912.56;5013374;28;20065;-81
2023/08/27 01:46:04;;;;;;;8.43;3.58;;;;;;;-144.05;81.77;56938.03;5013831;28;20061;-80
2023/08/27 01:48:30;;;;;;;5.10;3.60;;;;;;;-144.05;81.78;56942.28;5028553;28;20157;-80
2023/08/27 01:50:56;;;;;;;7.28;4.18;;;;;;;-144.05;81.58;56942.28;5016686;28;20029;-79
2023/08/27 01:53:22;;;;;;;7.80;3.95;;;;;;;-144.05;81.58;56935.91;5016820;28;20048;-80
2023/08/27 01:55:49;;;;;;;7.63;4.05;;;;;;;-144.05;81.87;56921.06;5016802;28;20029;-79
2023/08/27 01:58:15;;;;;;;6.55;3.50;;;;;;;-144.05;81.64;56948.66;5016677;28;20072;-79
2023/08/27 02:00:42;;;;;;;5.45;3.17;;;;;;;-144.05;81.54;56929.53;5014795;28;20034;-79
2023/08/27 02:03:09;;;;;;;4.90;2.95;;;;;;;-144.05;81.30;56897.69;5014520;28;20029;-78
2023/08/27 02:05:35;;;;;;;4.78;2.80;;;;;;;-144.05;81.07;56918.94;5015578;28;20030;-78
2023/08/27 02:08:01;;;;;;;6.00;2.97;;;;;;;-144.05;81.46;56921.06;5016062;28;20113;-79
2023/08/27 02:10:28;;;;;;;7.45;3.33;;;;;;;-144.05;81.12;56938.03;5016186;28;20061;-79
2023/08/27 02:12:54;;;;;;;5.22;3.17;;;;;;;-144.05;81.26;56923.19;5014977;28;20132;-80
2023/08/27 02:15:20;;;;;;;5.55;3.40;;;;;;;-144.05;80.45;56916.81;5016389;28;20146;-79
2023/08/27 02:17:46;;;;;;;5.57;3.67;;;;;;;-144.05;80.39;56946.53;5016465;28;20034;-81
2023/08/27 02:20:12;;;;;;;6.93;3.80;;;;;;;-144.05;80.47;56923.19;5016900;28;20477;-81
2023/08/27 02:22:39;;;;;;;5.55;3.38;;;;;;;-144.05;80.37;56908.31;5021102;28;20465;-81
2023/08/27 02:25:06;;;;;;;6.47;3.05;;;14.10;99.90;;;-144.05;80.32;56893.44;5020568;28;20049;-82
2023/08/27 02:27:32;;;;;;;6.05;3.08;;;;;;;-144.05;80.05;56948.66;5019236;28;20088;-79
2023/08/27 02:29:59;;;;;;;4.13;2.67;;;;;;;-144.05;79.98;56929.53;5032317;28;20128;-82
2023/08/27 02:32:25;;;;;;;4.18;2.85;;;;;;;-144.05;80.00;56935.91;5038984;28;20029;-81
2023/08/27 02:34:51;;;;;;;5.78;3.30;;;;;;;-144.05;79.91;56927.41;5038397;28;20029;-81
2023/08/27 02:37:18;;;;;;;7.35;3.08;;;;;;;-144.05;79.70;56933.78;5038454;28;20693;-81
2023/08/27 02:39:44;;;;;;;6.32;3.42;;;;;;;-144.05;79.72;56925.28;5038215;28;20029;-81
2023/08/27 02:42:11;;;;;;;6.40;3.55;;;;;;;-144.05;80.25;56935.91;5036734;28;20029;-82
2023/08/27 02:44:37;;;;;;;5.90;3.90;;;;;;;-144.05;80.01;56925.28;5036614;28;20152;-80
2023/08/27 02:47:03;;;;;;;9.05;3.10;;;;;;;-144.05;79.71;56931.66;5037666;28;20052;-80
2023/08/27 02:49:30;;;;;;;4.82;2.58;;;;;;;-144.05;79.58;56906.19;5057714;28;20036;-80
2023/08/27 02:51:56;;;;;;;10.55;2.60;;;;;;;-144.05;79.33;56927.41;5042245;28;20033;-82
2023/08/27 02:54:22;;;;;;;5.75;2.75;;;;;;;-144.05;79.18;56933.78;5052933;28;20532;-81
2023/08/27 02:56:48;;;;;;;5.75;3.05;;;;;;;-144.05;79.14;56935.91;5035226;28;20378;-79
2023/08/27 02:59:14;;;;;;;5.30;2.83;;;;;;;-144.05;79.25;56938.03;5035284;28;20041;-78
2023/08/27 03:01:41;;;;;;;6.57;2.58;;;;;;;-144.05;79.24;56923.19;5033738;28;20018;-80
2023/08/27 03:04:07;;;;;;;6.45;3.08;;;;;;;-144.05;79.18;56935.91;5034141;28;20342;-79
2023/08/27 03:06:33;;;;;;;3.80;3.30;;;;;;;-144.05;79.61;56916.81;5034728;28;20116;-80
2023/08/27 03:08:59;;;;;;;5.38;2.63;;;9.70;99.90;;;-144.05;79.89;56921.06;5035051;28;20025;-79
2023/08/27 03:11:25;;;;;;;4.63;2.55;;;;;;;-144.05;79.90;56925.28;5034479;28;20029;-80
2023/08/27 03:13:51;;;;;;;3.38;2.30;;;;;;;-144.05;79.84;56946.53;5034602;28;20040;-79
2023/08/27 03:16:17;;;;;;;4.35;2.88;;;;;;;-144.05;80.44;56942.28;5034412;28;20163;-79
2023/08/27 03:18:44;;;;;;;5.72;3.63;;;;;;;-144.05;80.14;56927.41;5049683;28;20572;-79
2023/08/27 03:21:10;;;;;;;4.88;2.88;;;;;;;-144.05;80.03;56940.16;5034153;28;20449;-80
2023/08/27 03:23:36;;;;;;;6.65;2.65;;;9.60;99.90;;;-144.05;80.29;56927.41;5034809;28;20029;-80
2023/08/27 03:26:03;;;;;;;5.22;2.50;;;;;;;-144.05;80.11;56944.41;5033325;28;20044;-80
2023/08/27 03:28:29;;;;;;;6.82;2.63;;;;;;;-144.05;79.72;56942.28;5034221;28;20083;-79
2023/08/27 03:30:55;;;;;;;4.45;2.55;;;;;;;-144.05;79.57;56899.81;5034500;28;20053;-79
2023/08/27 03:33:22;;;;;;;4.70;2.63;;;;;;;-144.05;79.62;56942.28;5034567;28;20037;-79
2023/08/27 03:35:56;;;;;;;3.50;2.35;;;13.90;99.90;;;-144.05;79.74;56950.78;5034204;28;20087;-80
2023/08/27 03:38:22;;;;;;;4.22;2.22;;;9.60;99.90;;;-144.05;79.48;56929.53;5033822;28;20064;-79
2023/08/27 03:40:52;;;;;;;6.50;2.33;;;14.00;99.90;;;-144.05;79.30;56921.06;5034003;28;20056;-79
2023/08/27 03:43:18;;;;;;;8.77;2.50;;;;;;;-144.05;79.18;56931.66;5034028;28;20100;-79
2023/08/27 03:45:45;;;;;;;5.00;2.17;;;;;;;-144.05;78.86;56950.78;5033948;28;20125;-80
2023/08/27 03:48:11;;;;;;;3.30;2.38;;;16.70;99.90;;;-144.05;78.77;56938.03;5034244;28;20033;-80
2023/08/27 03:50:37;;;;;;;5.93;3.05;;;9.60;99.90;;;-144.05;78.50;56946.53;5049035;28;20025;-80
2023/08/27 03:53:05;;;;;;;5.68;2.03;;;16.70;99.90;;;-144.05;78.77;56931.66;5049405;28;20040;-80
2023/08/27 03:55:41;;;;;;;2.70;2.08;;;9.30;99.90;;;-144.05;78.33;56904.06;5035768;28;20492;-79
2023/08/27 03:58:08;;;;;;;6.07;2.35;;;14.20;99.90;;;-144.05;77.63;56918.94;5035198;28;20088;-79
2023/08/27 04:00:35;;;;;;;4.85;2.00;;;14.20;99.90;;;-144.05;77.69;56940.16;5034723;28;20037;-80
2023/08/27 04:03:02;;;;;;;6.25;2.70;;;9.90;99.90;;;-144.05;78.15;56912.56;5035550;28;20036;-79
2023/08/27 04:05:29;;;;;;;4.82;2.17;;;;;;;-144.05;77.63;56931.66;5049997;28;20029;-80
2023/08/27 04:07:55;;;;;;;3.63;2.22;;;10.00;99.90;;;-144.05;77.55;56946.53;5033211;28;20034;-79
2023/08/27 04:10:21;;;;;;;2.80;2.00;;;;;;;-144.05;77.55;56918.94;5031360;28;20037;-79
2023/08/27 04:12:47;;;;;;;4.32;2.33;;;;;;;-144.05;77.38;56940.16;5032692;28;20025;-80
2023/08/27 04:15:13;;;;;;;5.78;2.97;;;;;;;-144.05;77.43;56929.53;5031782;28;20067;-80
2023/08/27 04:17:39;;;;;;;4.50;2.38;;;9.60;99.90;;;-144.05;77.31;56921.06;5032783;28;20489;-80
2023/08/27 04:20:08;;;;;;;5.18;2.15;;;10.00;99.90;;;-144.05;76.94;56931.66;5031416;28;20087;-79
2023/08/27 04:22:34;;;;;;;5.13;2.30;;;9.80;99.90;;;-144.05;77.33;56946.53;5031346;28;20060;-81
2023/08/27 04:25:00;;;;;;;6.25;2.20;;;;;;;-144.05;77.06;56895.56;5033022;28;20452;-79
2023/08/27 04:27:26;;;;;;;3.47;2.00;;;;;;;-144.05;77.24;56959.28;5032695;28;20397;-81
2023/08/27 04:29:52;;;;;;;4.60;1.95;;;16.70;99.90;;;-144.05;77.23;56897.69;5039140;28;20045;-80
2023/08/27 04:32:19;;;;;;;3.85;1.98;;;;;;;-144.05;77.38;56940.16;5032591;28;20033;-80
2023/08/27 04:34:45;;;;;;;2.83;1.95;;;;;;;-144.05;77.61;56914.69;5031458;28;20025;-80
2023/08/27 04:37:11;;;;;;;2.33;1.85;;;;;;;-144.05;77.48;56935.91;5048135;28;20083;-80
2023/08/27 04:39:37;;;;;;;2.10;1.90;;;;;;;-144.05;77.54;56942.28;5033382;28;20025;-79
2023/08/27 04:42:03;;;;;;;4.45;2.53;;;;;;;-144.05;78.13;56935.91;5032732;28;20069;-79
2023/08/27 04:44:31;;;;;;;3.70;2.20;;;;;;;-144.05;78.58;56931.66;5032896;28;20071;-80
2023/08/27 04:46:57;;;;;;;7.32;2.97;;;;;;;-144.05;78.96;56925.28;5033149;28;20037;-79
2023/08/27 04:49:23;;;;;;;5.38;2.78;;;;;;;-144.05;78.99;56921.06;5033337;28;20574;-80
2023/08/27 04:51:49;;;;;;;4.55;2.42;;;;;;;-144.05;78.92;56931.66;5048212;28;20025;-80
2023/08/27 04:54:15;;;;;;;4.65;2.08;;;16.90;99.90;;;-144.05;78.68;56935.91;5033236;28;20036;-80
2023/08/27 04:56:41;;;;;;;3.00;1.80;;;9.50;99.90;;;-144.05;78.63;56946.53;5033410;28;20034;-80
2023/08/27 04:59:07;;;;;;;6.85;2.85;;;;;;;-144.05;78.67;56961.41;5048501;28;20500;-80
2023/08/27 05:01:33;;;;;;;2.60;1.80;;;;;;;-144.05;78.54;56952.91;5033151;28;20025;-81
2023/08/27 05:03:59;;;;;;;4.22;2.13;;;;;;;-144.05;78.55;56904.06;5033342;28;20029;-80
2023/08/27 05:06:26;;;;;;;4.25;2.15;;;;;;;-144.05;78.90;56933.78;5033436;28;20037;-81
2023/08/27 05:08:52;;;;;;;3.28;2.40;;;;;;;-144.05;78.97;56921.06;5032597;28;20041;-79
2023/08/27 05:11:18;;;;;;;6.22;2.10;;;9.20;99.90;;;-144.05;80.80;56916.81;5032496;28;20034;-79
2023/08/27 05:13:43;;;;;;;4.50;2.38;;;17.10;99.90;;;-144.05;80.07;56965.66;5032337;28;20109;-81
2023/08/27 05:16:09;;;;;;;6.65;2.40;;;9.20;99.90;;;-144.05;79.33;56946.53;5032353;28;20083;-80
2023/08/27 05:18:35;;;;;;;8.50;2.58;;;;;;;-144.05;79.13;56929.53;5050090;28;20128;-81
2023/08/27 05:21:01;;;;;;;3.30;1.88;;;;;;;-144.05;78.53;56918.94;5036164;28;20029;-81
2023/08/27 05:23:27;;;;;;;5.30;2.10;;;9.80;99.90;;;-144.05;78.16;56895.56;5036543;28;20029;-82
2023/08/27 05:25:54;;;;;;;4.63;1.95;;;;;;;-144.05;77.93;56927.41;5038745;28;20037;-82
2023/08/27 05:28:20;;;;;;;6.55;2.28;;;;;;;-144.05;77.55;56935.91;5039274;28;20449;-82
2023/08/27 05:30:46;;;;;;;3.80;1.80;;;;;;;-144.05;77.29;56938.03;5042692;28;20052;-81
2023/08/27 05:33:12;;;;;;;3.50;2.00;;;;;;;-144.05;76.83;56923.19;5043941;28;20030;-80
2023/08/27 05:35:39;;;;;;;3.35;1.92;;;;;;;-144.05;76.08;56944.41;5044878;28;20374;-80
2023/08/27 05:38:05;;;;;;;2.67;1.67;;;16.90;99.90;;;-144.05;76.00;56933.78;5045635;28;20448;-81
2023/08/27 05:40:31;;;;;;;3.67;2.15;;;;;;;-144.05;75.87;56927.41;5044159;28;20038;-80
2023/08/27 05:42:58;;;;;;;4.32;1.95;;;10.60;99.90;;;-144.05;74.65;56929.53;5039804;28;20116;-81
2023/08/27 05:45:24;;;;;;;10.32;2.03;;;10.90;99.90;;;-144.05;73.05;56914.69;5049580;28;20052;-81
2023/08/27 05:47:49;;;;;;;4.80;1.60;;;11.10;99.90;;;-144.05;73.05;56959.28;5057188;28;20021;-82
2023/08/27 05:50:16;;;;;;;4.72;1.50;;;;;;;-144.05;70.38;56910.44;5041753;28;20440;-79
2023/08/27 05:52:41;;;;;;;8.68;1.58;;;11.40;99.90;;;-144.05;70.09;56959.28;5041161;28;20029;-80
2023/08/27 05:55:08;;;;;;;5.68;1.30;;;16.90;99.90;;;-144.05;69.75;56946.53;5041469;28;20026;-80
2023/08/27 05:57:34;;;;;;;4.95;1.80;;;11.20;99.90;;;-144.05;69.79;56914.69;5056151;28;20030;-79
2023/08/27 06:00:00;;;;;;;5.20;1.70;;;;;;;-144.05;70.27;56927.41;5054103;28;20615;-80
2023/08/27 06:02:26;;;;;;;1.90;1.50;;;11.30;99.90;;;-144.05;70.96;56929.53;5038085;28;20026;-81
2023/08/27 06:04:52;;;;;;;2.70;1.30;;;;;;;-144.05;71.44;56944.41;5038015;28;20063;-80
2023/08/27 06:07:18;;;;;;;4.10;1.40;;;10.70;99.90;;;-144.05;73.29;56923.19;5035109;28;20502;-80
2023/08/27 06:09:44;;;;;;;1.77;1.33;;;;;;;-144.05;73.79;56929.53;5036045;28;20069;-80
2023/08/27 06:12:11;;;;;;;3.08;1.73;;;;;;;-144.05;73.57;56923.19;5052132;28;20543;-80
2023/08/27 06:14:36;;;;;;;3.58;1.50;;;17.30;99.90;;;-144.05;74.24;56916.81;5036605;28;20068;-78
2023/08/27 06:17:03;;;;;;;3.22;1.80;;;;;;;-144.05;73.80;56925.28;5037164;28;20428;-81
2023/08/27 06:19:29;;;;;;;2.83;1.60;;;;;;;-144.05;74.50;56955.03;5036796;28;20112;-80
2023/08/27 06:21:57;;;;;;;5.00;1.63;;;;;;;-144.05;74.61;56938.03;5035293;28;20384;-80
2023/08/27 06:24:23;;;;;;;2.20;1.40;;;;;;;-144.05;75.53;56946.53;5035235;28;20085;-78
2023/08/27 06:26:49;;;;;;;1.50;1.17;;;10.40;99.90;;;-144.05;76.61;56908.31;5035166;28;20029;-78
2023/08/27 06:29:15;;;;;;;3.20;1.30;;;;;;;-144.05;77.09;56908.31;5034323;28;20083;-79
2023/08/27 06:31:42;;;;;;;3.60;1.45;;;10.50;99.90;;;-144.05;78.11;56914.69;5035421;28;20036;-78
2023/08/27 06:34:08;;;;;;;1.95;1.13;;;17.00;99.90;;;-144.05;78.80;56916.81;5036088;28;20029;-79
2023/08/27 06:36:36;;;;;;;4.78;1.50;;;14.80;99.90;;;-144.05;78.82;56906.19;5036448;28;20485;-80
2023/08/27 06:39:02;;;;;;;3.75;1.58;;;;;;;-144.05;79.40;56948.66;5034692;28;20053;-79
2023/08/27 06:41:29;;;;;;;1.80;1.40;;;;;;;-144.05;80.26;56935.91;5036186;28;20025;-79
2023/08/27 06:43:55;;;;;;;3.80;1.73;;;;;;;-144.05;80.14;56935.91;5034449;28;20061;-79
2023/08/27 06:46:21;;;;;;;2.17;1.50;;;;;;;-144.05;80.50;56931.66;5032955;28;20374;-79
2023/08/27 06:48:47;;;;;;;3.85;1.60;;;;;;;-144.05;81.44;56952.91;5034359;28;20029;-79
2023/08/27 06:51:14;;;;;;;2.17;1.95;;;;;;;-144.05;81.41;56942.28;5034411;28;20190;-80
2023/08/27 06:53:40;;;;;;;1.77;1.30;;;;;;;-144.05;81.76;56938.03;5035856;28;20558;-81
2023/08/27 06:56:07;;;;;;;3.28;1.42;;;;;;;-144.05;81.36;56931.66;5035252;28;20101;-82
2023/08/27 06:58:32;;;;;;;4.07;1.65;;;10.40;99.90;;;-144.05;81.57;56893.44;5034237;28;20025;-80
2023/08/27 07:01:04;;;;;;;3.63;2.05;;;;;;;-144.05;81.47;56942.28;5034750;28;20156;-80
2023/08/27 07:03:31;;;;;;;1.52;1.20;;;;;;;-144.05;81.60;56957.16;5036177;28;20029;-78
2023/08/27 07:05:57;;;;;;;2.33;1.67;;;;;;;-144.05;81.72;56927.41;5035189;28;20040;-79
2023/08/27 07:08:24;;;;;;;2.70;1.60;;;;;;;-144.05;81.07;56933.78;5034844;28;20437;-81
2023/08/27 07:10:50;;;;;;;3.03;1.80;;;;;;;-144.05;80.62;56933.78;5034907;28;20033;-80
2023/08/27 07:13:16;;;;;;;2.78;1.48;;;;;;;-144.05;80.30;56921.06;5033688;28;20168;-80
2023/08/27 07:15:42;;;;;;;2.75;1.60;;;;;;;-144.05;80.14;56948.66;5033364;28;20037;-81
2023/08/27 07:18:09;;;;;;;2.20;1.60;;;;;;;-144.05;79.36;56887.06;5032958;28;20045;-78
2023/08/27 07:20:35;;;;;;;3.22;1.35;;;;;;;-144.05;79.62;56938.03;5048492;28;20029;-79
2023/08/27 07:23:01;;;;;;;2.97;1.40;;;;;;;-144.05;79.74;56946.53;5033184;28;20025;-80
2023/08/27 07:25:28;;;;;;;1.55;1.45;;;;;;;-144.05;79.45;56944.41;5031662;28;20029;-78
2023/08/27 07:27:54;;;;;;;2.50;1.60;;;;;;;-144.05;79.47;56929.53;5033213;28;20022;-80
2023/08/27 07:30:20;;;;;;;2.47;1.33;;;;;;;-144.05;79.08;56880.69;5031668;28;20060;-80
2023/08/27 07:32:46;;;;;;;3.00;1.80;;;;;;;-144.05;78.86;56912.56;5033051;28;20036;-80
2023/08/27 07:35:13;;;;;;;2.58;1.65;;;;;;;-144.05;78.75;56950.78;5032710;28;20040;-81
2023/08/27 07:37:39;;;;;;;2.15;1.60;;;;;;;-144.05;79.20;56916.81;5032766;28;20485;-81
2023/08/27 07:40:09;;;;;;;3.38;1.73;;;;;;;-144.05;79.69;56950.78;5031579;28;20069;-81
2023/08/27 07:42:35;;;;;;;4.05;2.15;;;;;;;-144.05;79.62;56927.41;5031182;28;20036;-80
2023/08/27 07:45:02;;;;;;;3.08;1.70;;;16.20;99.90;;;-144.05;78.98;56916.81;5032645;28;20131;-80
2023/08/27 07:47:28;;;;;;;3.72;1.65;;;;;;;-144.05;78.80;56929.53;5032098;28;20065;-79
2023/08/27 07:49:55;;;;;;;3.85;2.10;;;;;;;-144.05;77.76;56925.28;5032441;28;20037;-80
2023/08/27 07:52:21;;;;;;;2.75;2.05;;;;;;;-144.05;74.91;56940.16;5032336;28;20076;-80
2023/08/27 07:54:47;;;;;;;3.10;1.60;;;;;;;-144.05;72.34;56942.28;5031111;28;20346;-80
2023/08/27 07:57:13;;;;;;;3.58;1.58;;;;;;;-144.05;70.21;56950.78;5032505;28;20038;-79
2023/08/27 07:59:41;;;;;;;5.18;2.20;;;;;;;-144.05;69.69;56923.19;5048142;28;20029;-81
2023/08/27 08:02:08;;;;;;;5.57;2.40;;;;;;;-144.05;69.94;56918.94;5033007;28;20101;-79
2023/08/27 08:04:34;;;;;;;4.38;1.90;;;;;;;-144.05;69.85;56967.78;5048340;28;20068;-78
2023/08/27 08:07:00;;;;;;;4.22;2.13;;;;;;;-144.05;69.96;56944.41;5034040;28;20032;-78
2023/08/27 08:09:26;;;;;;;4.53;2.10;;;;;;;-144.05;67.59;56927.41;5050681;28;20422;-81
2023/08/27 08:11:53;;;;;;;2.67;1.85;;;;;;;-144.05;66.77;56901.94;5036046;28;20044;-82
2023/08/27 08:14:19;;;;;;;2.92;2.28;;;;;;;-144.05;68.33;56933.78;5035511;28;20378;-79
2023/08/27 08:16:45;;;;;;;3.22;2.25;;;;;;;-144.05;69.21;56929.53;5040170;28;20124;-81
2023/08/27 08:19:12;;;;;;;7.57;2.53;;;;;;;-144.05;68.97;56923.19;5039409;28;20025;-81
2023/08/27 08:21:38;;;;;;;5.85;2.28;;;;;;;-144.05;68.21;56933.78;5039508;28;20030;-79
2023/08/27 08:24:04;;;;;;;6.40;2.95;;;;;;;-144.05;67.46;56938.03;5037932;28;20021;-82
2023/08/27 08:26:30;;;;;;;2.72;1.73;;;;;;;-144.05;67.69;56901.94;5040751;28;20028;-81
2023/08/27 08:28:56;;;;;;;6.15;2.58;;;;;;;-144.05;67.78;56914.69;5032661;28;20481;-78
2023/08/27 08:31:23;;;;;;;4.75;3.17;;;;;;;-144.05;67.37;56944.41;5016287;28;20069;-81
2023/08/27 08:33:49;;;;;;;3.17;2.17;;;;;;;-144.05;67.43;56955.03;5018223;28;20036;-84
2023/08/27 08:36:15;;;;;;;6.65;3.10;;;;;;;-144.05;66.46;56916.81;5018274;28;20048;-81
2023/08/27 08:38:41;;;;;;;3.35;2.45;;;;;;;-144.05;68.30;56893.44;5014734;28;20025;-81
2023/08/27 08:41:13;;;;;;;2.92;2.38;;;12.80;99.90;;;-144.05;68.43;56972.03;5015769;28;20049;-79
2023/08/27 08:43:51;;;;;;;3.78;1.90;;;17.60;99.90;;;-144.05;69.18;56942.28;5015910;28;20030;-85
2023/08/27 08:46:20;;;;;;;3.95;1.85;;;17.70;99.90;;;-144.05;70.16;56938.03;5020372;28;20033;-83
2023/08/27 08:48:50;;;;;;;6.63;2.17;;;17.70;99.90;;;-144.05;70.54;56929.53;5021513;28;20497;-82
2023/08/27 08:51:26;;;;;;;5.25;2.40;;;18.00;99.90;;;-144.05;70.71;56946.53;5017582;28;20113;-82
2023/08/27 08:54:02;;;;;;;5.63;2.20;;;18.40;99.90;;;-144.05;69.31;56980.53;5032598;28;20030;-79
2023/08/27 08:56:37;;;;;;;4.43;2.35;;;17.60;99.90;;;-144.05;69.08;56944.41;5016104;28;20025;-81
2023/08/27 08:59:05;;;;;;;3.40;2.45;;;17.50;99.90;;;-144.05;70.81;56921.06;5020235;28;20438;-79
2023/08/27 09:01:32;;;;;;;3.60;2.40;;;;;;;-144.05;71.54;56940.16;5022814;28;20094;-80
2023/08/27 09:04:01;;;;;;;4.30;2.22;;;12.60;99.90;;;-144.05;71.75;56946.53;5021295;28;20528;-84
2023/08/27 09:06:29;;;;;;;4.65;2.13;;;17.50;99.90;;;-144.05;70.86;56948.66;5019244;28;20127;-79
2023/08/27 09:08:57;;;;;;;3.15;2.10;;;17.00;99.90;;;-144.05;71.72;56942.28;5016754;28;20033;-76
2023/08/27 09:11:27;;;;;;;5.82;2.08;;;13.10;99.90;;;-144.05;72.41;56942.28;5016729;28;20030;-80
2023/08/27 09:13:56;;;;;;;2.75;1.90;;;;;;;-144.05;72.22;56944.41;5016769;28;20141;-82
2023/08/27 09:16:23;;;;;;;5.72;2.00;;;;;;;-144.05;72.34;56921.06;5020191;28;20092;-79
2023/08/27 09:18:49;;;;;;;2.40;1.70;;;13.10;99.90;;;-144.05;72.38;56946.53;5016719;28;20030;-79
2023/08/27 09:21:15;;;;;;;2.28;1.52;;;12.70;99.90;;;-144.05;70.13;56944.41;5017953;28;20389;-78
2023/08/27 09:23:41;;;;;;;2.35;1.40;;;;;;;-144.05;69.52;56952.91;5018558;28;20034;-79
2023/08/27 09:26:08;;;;;;;3.83;1.75;;;;;;;-144.05;69.31;56955.03;5017617;28;20144;-81
2023/08/27 09:28:35;;;;;;;2.90;1.50;;;;;;;-144.05;68.80;56952.91;5018565;28;20532;-80
2023/08/27 09:31:01;;;;;;;2.90;1.67;;;;;;;-144.05;67.75;56918.94;5036754;28;20040;-80
2023/08/27 09:33:43;;;;;;;4.45;1.95;;;13.70;99.90;;;-144.05;66.38;56957.16;5037025;28;20111;-79
2023/08/27 09:36:10;;;;;;;2.78;1.60;;;;;;;-144.05;65.67;56940.16;5037113;28;20056;-79
2023/08/27 09:38:36;;;;;;;2.63;1.40;;;18.20;99.90;;;-144.05;65.56;56965.66;5047583;28;20029;-82
2023/08/27 09:41:17;;;;;;;3.17;1.77;;;13.60;99.90;;;-144.05;64.33;56940.16;5041872;28;20108;-78
2023/08/27 09:43:54;;;;;;;2.53;1.48;;;18.10;99.90;;;-144.05;63.47;56933.78;5038535;28;20021;-81
2023/08/27 09:46:20;;;;;;;5.82;1.55;;;;;;;-144.05;62.94;56961.41;5055584;28;20119;-81
2023/08/27 09:49:06;;;;;;;2.65;1.40;;;18.20;99.90;;;-144.05;63.05;56963.53;5041059;28;20026;-81
2023/08/27 09:51:35;;;;;;;3.47;1.92;;;18.30;99.90;;;-144.05;62.85;56969.91;5041870;28;20075;-79
2023/08/27 09:54:20;;;;;;;6.07;1.88;;;;;;;-144.05;61.28;56942.28;5040895;28;20075;-80
2023/08/27 09:56:51;;;;;;;3.05;1.52;;;;;;;-144.05;59.17;56912.56;5037041;28;20025;-80
2023/08/27 09:59:19;;;;;;;2.60;1.80;;;18.40;99.90;;;-144.05;60.20;56959.28;5037398;28;20389;-78
2023/08/27 10:01:51;;;;;;;2.67;1.50;;;18.70;99.90;;;-144.05;59.71;56933.78;5037280;28;20033;-81
2023/08/27 10:04:18;;;;;;;2.30;1.50;;;;;;;-144.05;56.86;56952.91;5037427;28;20030;-79
2023/08/27 10:06:45;;;;;;;2.25;1.50;;;14.70;99.90;;;-144.05;56.05;56959.28;5036979;28;20035;-80
2023/08/27 10:09:11;;;;;;;2.95;1.38;;;;;;;-144.05;53.90;56969.91;5039525;28;20097;-79
2023/08/27 10:11:45;;;;;;;2.03;1.20;;;19.90;99.90;;;-144.05;54.44;56991.13;5042528;28;20090;-77
2023/08/27 10:14:15;;;;;;;1.92;1.15;;;;;;;-144.05;54.05;56986.91;5036954;28;20028;-80
2023/08/27 10:16:41;;;;;;;5.10;1.40;;;;;;;-144.05;51.26;56969.91;5035423;28;20026;-79
2023/08/27 10:19:09;;;;;;;2.92;1.35;;;19.70;99.90;;;-144.05;51.26;56980.53;5037004;28;20107;-79
2023/08/27 10:21:36;;;;;;;4.00;2.08;;;14.90;99.90;;;-144.05;52.32;56972.03;5036892;28;20022;-81
2023/08/27 10:24:04;;;;;;;3.60;1.33;;;15.00;99.90;;;-144.05;53.04;56980.53;5053354;28;20021;-79
2023/08/27 10:26:32;;;;;;;2.45;1.25;;;20.20;99.90;;;-144.05;51.76;56982.66;5039949;28;20079;-79
2023/08/27 10:28:59;;;;;;;1.70;1.10;;;16.10;99.90;;;-144.05;49.99;56989.00;5039905;28;20101;-80
2023/08/27 10:31:26;;;;;;;5.65;1.38;;;16.60;99.90;;;-144.05;50.98;56999.63;5039299;28;20035;-80
2023/08/27 10:33:53;;;;;;;3.60;1.30;;;;;;;-144.05;50.40;56982.66;5040487;28;20036;-79
2023/08/27 10:36:31;;;;;;;2.72;1.30;;;16.50;99.90;;;-144.05;49.76;56972.03;5039707;28;20100;-81
2023/08/27 10:39:04;;;;;;;3.08;1.50;;;21.50;99.90;;;-144.05;46.56;56974.16;5039119;28;20029;-82
2023/08/27 10:41:34;;;;;;;2.97;1.40;;;;;;;-144.05;44.48;57035.75;5054313;28;20022;-81
2023/08/27 10:44:01;;;;;;;3.30;1.55;;;22.10;99.90;;;-144.05;44.67;56986.91;5039533;28;20030;-79
2023/08/27 10:46:27;;;;;;;2.63;1.20;;;;;;;-144.05;46.41;56995.38;5052190;28;20060;-83
2023/08/27 10:48:55;;;;;;;3.75;1.58;;;16.40;99.90;;;-144.05;47.53;57006.00;5038705;28;20029;-80
2023/08/27 10:51:31;;;;;;;2.85;1.40;;;20.40;99.90;;;-144.05;48.92;57010.25;5038414;28;20032;-80
2023/08/27 10:54:01;;;;;;;2.03;1.38;;;20.00;99.90;;;-144.05;49.33;56980.53;5053278;28;20101;-82